sensor_id;sensor_type;location;lat;lon;timestamp;P1;durP1;ratioP1;P2;durP2;ratioP2
37355;SDS011;48747;50.250;18.848;2022-07-17T00:01:31;7.47;;;3.92;;
37355;SDS011;48747;50.250;18.848;2022-07-17T00:03:34;5.75;;;4.30;;
37355;SDS011;48747;50.250;18.848;2022-07-17T00:05:38;6.83;;;4.05;;
37355;SDS011;48747;50.250;18.848;2022-07-17T00:07:41;7.30;;;4.37;;
37355;SDS011;48747;50.250;18.848;2022-07-17T00:09:44;6.00;;;4.00;;
37355;SDS011;48747;50.250;18.848;2022-07-17T00:11:47;8.95;;;4.47;;
37355;SDS011;48747;50.250;18.848;2022-07-17T00:13:51;6.30;;;4.22;;
37355;SDS011;48747;50.250;18.848;2022-07-17T00:15:54;6.05;;;4.00;;
37355;SDS011;48747;50.250;18.848;2022-07-17T00:17:57;5.22;;;3.50;;
37355;SDS011;48747;50.250;18.848;2022-07-17T00:20:00;15.88;;;4.10;;
37355;SDS011;48747;50.250;18.848;2022-07-17T00:22:04;4.22;;;3.72;;
37355;SDS011;48747;50.250;18.848;2022-07-17T00:24:07;6.53;;;3.92;;
37355;SDS011;48747;50.250;18.848;2022-07-17T00:26:11;6.42;;;3.55;;
37355;SDS011;48747;50.250;18.848;2022-07-17T00:28:14;4.95;;;3.60;;
37355;SDS011;48747;50.250;18.848;2022-07-17T00:30:18;6.45;;;4.28;;
37355;SDS011;48747;50.250;18.848;2022-07-17T00:32:21;4.83;;;3.87;;
37355;SDS011;48747;50.250;18.848;2022-07-17T00:34:26;6.47;;;4.00;;
37355;SDS011;48747;50.250;18.848;2022-07-17T00:36:29;6.08;;;3.80;;
37355;SDS011;48747;50.250;18.848;2022-07-17T00:38:34;6.78;;;3.80;;
37355;SDS011;48747;50.250;18.848;2022-07-17T00:40:37;11.80;;;4.30;;
37355;SDS011;48747;50.250;18.848;2022-07-17T00:42:41;6.12;;;4.22;;
37355;SDS011;48747;50.250;18.848;2022-07-17T00:44:44;7.55;;;4.92;;
37355;SDS011;48747;50.250;18.848;2022-07-17T00:46:47;7.72;;;4.10;;
37355;SDS011;48747;50.250;18.848;2022-07-17T00:48:50;5.62;;;3.75;;
37355;SDS011;48747;50.250;18.848;2022-07-17T00:50:53;5.97;;;4.15;;
37355;SDS011;48747;50.250;18.848;2022-07-17T00:52:56;7.62;;;3.98;;
37355;SDS011;48747;50.250;18.848;2022-07-17T00:55:00;5.33;;;3.85;;
37355;SDS011;48747;50.250;18.848;2022-07-17T00:57:05;7.97;;;4.20;;
37355;SDS011;48747;50.250;18.848;2022-07-17T00:59:09;6.58;;;4.10;;
37355;SDS011;48747;50.250;18.848;2022-07-17T01:01:15;6.65;;;4.05;;
37355;SDS011;48747;50.250;18.848;2022-07-17T01:03:19;6.60;;;4.12;;
37355;SDS011;48747;50.250;18.848;2022-07-17T01:05:24;7.22;;;3.80;;
37355;SDS011;48747;50.250;18.848;2022-07-17T01:07:27;8.90;;;4.40;;
37355;SDS011;48747;50.250;18.848;2022-07-17T01:09:31;6.25;;;4.22;;
37355;SDS011;48747;50.250;18.848;2022-07-17T01:11:35;6.50;;;4.00;;
37355;SDS011;48747;50.250;18.848;2022-07-17T01:13:38;5.85;;;4.40;;
37355;SDS011;48747;50.250;18.848;2022-07-17T01:15:41;6.25;;;4.50;;
37355;SDS011;48747;50.250;18.848;2022-07-17T01:17:45;5.83;;;4.22;;
37355;SDS011;48747;50.250;18.848;2022-07-17T01:19:48;9.90;;;4.15;;
37355;SDS011;48747;50.250;18.848;2022-07-17T01:21:52;7.42;;;4.15;;
37355;SDS011;48747;50.250;18.848;2022-07-17T01:23:55;6.72;;;3.92;;
37355;SDS011;48747;50.250;18.848;2022-07-17T01:25:58;6.45;;;4.30;;
37355;SDS011;48747;50.250;18.848;2022-07-17T01:28:01;5.37;;;4.15;;
37355;SDS011;48747;50.250;18.848;2022-07-17T01:30:06;5.67;;;3.72;;
37355;SDS011;48747;50.250;18.848;2022-07-17T01:32:09;5.78;;;4.10;;
37355;SDS011;48747;50.250;18.848;2022-07-17T01:34:12;7.95;;;4.40;;
37355;SDS011;48747;50.250;18.848;2022-07-17T01:36:21;8.95;;;4.87;;
37355;SDS011;48747;50.250;18.848;2022-07-17T01:38:32;6.72;;;4.12;;
37355;SDS011;48747;50.250;18.848;2022-07-17T01:40:31;5.60;;;4.17;;
37355;SDS011;48747;50.250;18.848;2022-07-17T01:42:34;9.35;;;5.50;;
37355;SDS011;48747;50.250;18.848;2022-07-17T01:44:37;7.28;;;4.53;;
37355;SDS011;48747;50.250;18.848;2022-07-17T01:46:40;6.70;;;4.60;;
37355;SDS011;48747;50.250;18.848;2022-07-17T01:48:43;9.65;;;4.58;;
37355;SDS011;48747;50.250;18.848;2022-07-17T01:50:46;8.58;;;4.67;;
37355;SDS011;48747;50.250;18.848;2022-07-17T01:52:50;11.55;;;4.85;;
37355;SDS011;48747;50.250;18.848;2022-07-17T01:54:53;7.33;;;4.40;;
37355;SDS011;48747;50.250;18.848;2022-07-17T01:56:56;6.55;;;4.40;;
37355;SDS011;48747;50.250;18.848;2022-07-17T01:59:00;6.65;;;4.35;;
37355;SDS011;48747;50.250;18.848;2022-07-17T02:01:03;8.03;;;4.50;;
37355;SDS011;48747;50.250;18.848;2022-07-17T02:03:07;7.70;;;4.60;;
37355;SDS011;48747;50.250;18.848;2022-07-17T02:05:10;7.40;;;4.45;;
37355;SDS011;48747;50.250;18.848;2022-07-17T02:07:13;5.87;;;4.10;;
37355;SDS011;48747;50.250;18.848;2022-07-17T02:09:16;8.65;;;4.37;;
37355;SDS011;48747;50.250;18.848;2022-07-17T02:11:19;6.62;;;4.47;;
37355;SDS011;48747;50.250;18.848;2022-07-17T02:13:24;7.83;;;4.95;;
37355;SDS011;48747;50.250;18.848;2022-07-17T02:15:27;7.00;;;4.58;;
37355;SDS011;48747;50.250;18.848;2022-07-17T02:17:30;8.83;;;4.87;;
37355;SDS011;48747;50.250;18.848;2022-07-17T02:19:33;8.13;;;4.20;;
37355;SDS011;48747;50.250;18.848;2022-07-17T02:21:36;9.00;;;4.60;;
37355;SDS011;48747;50.250;18.848;2022-07-17T02:23:39;7.28;;;4.75;;
37355;SDS011;48747;50.250;18.848;2022-07-17T02:25:43;8.78;;;4.75;;
37355;SDS011;48747;50.250;18.848;2022-07-17T02:27:46;7.45;;;4.80;;
37355;SDS011;48747;50.250;18.848;2022-07-17T02:29:49;10.23;;;5.10;;
37355;SDS011;48747;50.250;18.848;2022-07-17T02:31:52;6.97;;;4.67;;
37355;SDS011;48747;50.250;18.848;2022-07-17T02:33:55;5.85;;;4.40;;
37355;SDS011;48747;50.250;18.848;2022-07-17T02:35:58;8.70;;;4.87;;
37355;SDS011;48747;50.250;18.848;2022-07-17T02:38:02;7.87;;;4.75;;
37355;SDS011;48747;50.250;18.848;2022-07-17T02:40:05;10.90;;;5.12;;
37355;SDS011;48747;50.250;18.848;2022-07-17T02:42:09;9.50;;;4.85;;
37355;SDS011;48747;50.250;18.848;2022-07-17T02:44:12;6.62;;;5.08;;
37355;SDS011;48747;50.250;18.848;2022-07-17T02:46:15;6.80;;;4.62;;
37355;SDS011;48747;50.250;18.848;2022-07-17T02:48:18;6.55;;;5.08;;
37355;SDS011;48747;50.250;18.848;2022-07-17T02:50:23;7.15;;;4.90;;
37355;SDS011;48747;50.250;18.848;2022-07-17T02:52:26;8.28;;;4.97;;
37355;SDS011;48747;50.250;18.848;2022-07-17T02:54:31;10.15;;;4.83;;
37355;SDS011;48747;50.250;18.848;2022-07-17T02:56:34;10.72;;;5.08;;
37355;SDS011;48747;50.250;18.848;2022-07-17T02:58:37;10.55;;;5.03;;
37355;SDS011;48747;50.250;18.848;2022-07-17T03:00:41;7.12;;;5.05;;
37355;SDS011;48747;50.250;18.848;2022-07-17T03:02:44;8.05;;;5.22;;
37355;SDS011;48747;50.250;18.848;2022-07-17T03:04:47;6.35;;;4.67;;
37355;SDS011;48747;50.250;18.848;2022-07-17T03:06:50;7.83;;;5.00;;
37355;SDS011;48747;50.250;18.848;2022-07-17T03:08:53;14.28;;;5.50;;
37355;SDS011;48747;50.250;18.848;2022-07-17T03:10:57;11.50;;;5.15;;
37355;SDS011;48747;50.250;18.848;2022-07-17T03:13:00;7.42;;;4.85;;
37355;SDS011;48747;50.250;18.848;2022-07-17T03:15:03;10.65;;;5.40;;
37355;SDS011;48747;50.250;18.848;2022-07-17T03:17:07;8.53;;;5.08;;
37355;SDS011;48747;50.250;18.848;2022-07-17T03:19:10;6.65;;;4.62;;
37355;SDS011;48747;50.250;18.848;2022-07-17T03:21:13;7.15;;;5.22;;
37355;SDS011;48747;50.250;18.848;2022-07-17T03:23:16;8.20;;;4.92;;
37355;SDS011;48747;50.250;18.848;2022-07-17T03:25:20;7.15;;;5.33;;
37355;SDS011;48747;50.250;18.848;2022-07-17T03:27:23;9.83;;;4.90;;
37355;SDS011;48747;50.250;18.848;2022-07-17T03:29:26;7.95;;;5.00;;
37355;SDS011;48747;50.250;18.848;2022-07-17T03:31:29;6.87;;;5.05;;
37355;SDS011;48747;50.250;18.848;2022-07-17T03:33:32;8.35;;;5.12;;
37355;SDS011;48747;50.250;18.848;2022-07-17T03:35:35;9.55;;;5.12;;
37355;SDS011;48747;50.250;18.848;2022-07-17T03:37:40;8.65;;;4.83;;
37355;SDS011;48747;50.250;18.848;2022-07-17T03:39:44;7.90;;;4.35;;
37355;SDS011;48747;50.250;18.848;2022-07-17T03:41:48;8.08;;;5.08;;
37355;SDS011;48747;50.250;18.848;2022-07-17T03:43:51;8.90;;;5.10;;
37355;SDS011;48747;50.250;18.848;2022-07-17T03:45:54;9.78;;;5.08;;
37355;SDS011;48747;50.250;18.848;2022-07-17T03:47:57;10.90;;;4.75;;
37355;SDS011;48747;50.250;18.848;2022-07-17T03:50:00;6.85;;;4.78;;
37355;SDS011;48747;50.250;18.848;2022-07-17T03:52:03;12.43;;;4.70;;
37355;SDS011;48747;50.250;18.848;2022-07-17T03:54:06;8.40;;;4.97;;
37355;SDS011;48747;50.250;18.848;2022-07-17T03:56:09;12.70;;;4.92;;
37355;SDS011;48747;50.250;18.848;2022-07-17T03:58:17;7.08;;;4.97;;
37355;SDS011;48747;50.250;18.848;2022-07-17T04:00:17;10.43;;;5.42;;
37355;SDS011;48747;50.250;18.848;2022-07-17T04:02:20;8.73;;;5.60;;
37355;SDS011;48747;50.250;18.848;2022-07-17T04:04:24;11.38;;;4.80;;
37355;SDS011;48747;50.250;18.848;2022-07-17T04:06:27;8.43;;;4.50;;
37355;SDS011;48747;50.250;18.848;2022-07-17T04:08:30;10.68;;;4.40;;
37355;SDS011;48747;50.250;18.848;2022-07-17T04:10:33;8.30;;;5.10;;
37355;SDS011;48747;50.250;18.848;2022-07-17T04:12:38;7.65;;;4.70;;
37355;SDS011;48747;50.250;18.848;2022-07-17T04:14:42;11.83;;;5.17;;
37355;SDS011;48747;50.250;18.848;2022-07-17T04:16:48;10.38;;;4.90;;
37355;SDS011;48747;50.250;18.848;2022-07-17T04:18:51;9.75;;;4.50;;
37355;SDS011;48747;50.250;18.848;2022-07-17T04:20:56;9.33;;;4.85;;
37355;SDS011;48747;50.250;18.848;2022-07-17T04:23:00;7.40;;;4.65;;
37355;SDS011;48747;50.250;18.848;2022-07-17T04:25:04;6.33;;;4.03;;
37355;SDS011;48747;50.250;18.848;2022-07-17T04:27:07;6.47;;;3.85;;
37355;SDS011;48747;50.250;18.848;2022-07-17T04:29:10;9.30;;;4.20;;
37355;SDS011;48747;50.250;18.848;2022-07-17T04:31:13;8.08;;;3.98;;
37355;SDS011;48747;50.250;18.848;2022-07-17T04:33:17;7.97;;;4.92;;
37355;SDS011;48747;50.250;18.848;2022-07-17T04:35:20;6.50;;;4.00;;
37355;SDS011;48747;50.250;18.848;2022-07-17T04:37:23;11.18;;;4.25;;
37355;SDS011;48747;50.250;18.848;2022-07-17T04:39:26;9.73;;;4.12;;
37355;SDS011;48747;50.250;18.848;2022-07-17T04:41:29;7.78;;;3.98;;
37355;SDS011;48747;50.250;18.848;2022-07-17T04:43:32;11.83;;;4.20;;
37355;SDS011;48747;50.250;18.848;2022-07-17T04:45:35;7.55;;;3.83;;
37355;SDS011;48747;50.250;18.848;2022-07-17T04:47:38;6.92;;;3.70;;
37355;SDS011;48747;50.250;18.848;2022-07-17T04:49:42;11.20;;;4.10;;
37355;SDS011;48747;50.250;18.848;2022-07-17T04:51:45;8.78;;;4.08;;
37355;SDS011;48747;50.250;18.848;2022-07-17T04:53:48;7.20;;;4.15;;
37355;SDS011;48747;50.250;18.848;2022-07-17T04:55:51;10.38;;;4.03;;
37355;SDS011;48747;50.250;18.848;2022-07-17T04:57:54;7.72;;;3.95;;
37355;SDS011;48747;50.250;18.848;2022-07-17T04:59:57;7.35;;;4.10;;
37355;SDS011;48747;50.250;18.848;2022-07-17T05:02:00;8.18;;;3.90;;
37355;SDS011;48747;50.250;18.848;2022-07-17T05:04:03;6.33;;;3.55;;
37355;SDS011;48747;50.250;18.848;2022-07-17T05:06:06;8.98;;;4.67;;
37355;SDS011;48747;50.250;18.848;2022-07-17T05:08:10;7.53;;;3.50;;
37355;SDS011;48747;50.250;18.848;2022-07-17T05:10:13;9.58;;;4.33;;
37355;SDS011;48747;50.250;18.848;2022-07-17T05:12:17;9.25;;;3.98;;
37355;SDS011;48747;50.250;18.848;2022-07-17T05:14:21;11.73;;;4.22;;
37355;SDS011;48747;50.250;18.848;2022-07-17T05:16:24;12.20;;;4.70;;
37355;SDS011;48747;50.250;18.848;2022-07-17T05:18:28;15.40;;;4.95;;
37355;SDS011;48747;50.250;18.848;2022-07-17T05:20:31;7.15;;;4.12;;
37355;SDS011;48747;50.250;18.848;2022-07-17T05:22:35;11.33;;;4.45;;
37355;SDS011;48747;50.250;18.848;2022-07-17T05:24:38;12.40;;;4.58;;
37355;SDS011;48747;50.250;18.848;2022-07-17T05:26:43;6.50;;;3.75;;
37355;SDS011;48747;50.250;18.848;2022-07-17T05:28:46;7.60;;;4.00;;
37355;SDS011;48747;50.250;18.848;2022-07-17T05:30:49;9.80;;;4.15;;
37355;SDS011;48747;50.250;18.848;2022-07-17T05:32:52;8.70;;;4.05;;
37355;SDS011;48747;50.250;18.848;2022-07-17T05:34:55;10.32;;;4.20;;
37355;SDS011;48747;50.250;18.848;2022-07-17T05:36:58;9.20;;;4.53;;
37355;SDS011;48747;50.250;18.848;2022-07-17T05:39:01;11.80;;;4.62;;
37355;SDS011;48747;50.250;18.848;2022-07-17T05:41:04;8.73;;;4.20;;
37355;SDS011;48747;50.250;18.848;2022-07-17T05:43:09;10.90;;;4.08;;
37355;SDS011;48747;50.250;18.848;2022-07-17T05:45:12;11.43;;;4.65;;
37355;SDS011;48747;50.250;18.848;2022-07-17T05:47:15;10.98;;;4.58;;
37355;SDS011;48747;50.250;18.848;2022-07-17T05:49:18;8.43;;;4.05;;
37355;SDS011;48747;50.250;18.848;2022-07-17T05:51:22;8.40;;;3.70;;
37355;SDS011;48747;50.250;18.848;2022-07-17T05:53:26;9.65;;;3.85;;
37355;SDS011;48747;50.250;18.848;2022-07-17T05:55:30;8.25;;;3.72;;
37355;SDS011;48747;50.250;18.848;2022-07-17T05:57:33;7.70;;;3.92;;
37355;SDS011;48747;50.250;18.848;2022-07-17T05:59:36;12.60;;;4.53;;
37355;SDS011;48747;50.250;18.848;2022-07-17T06:01:39;8.63;;;3.27;;
37355;SDS011;48747;50.250;18.848;2022-07-17T06:03:43;6.42;;;3.20;;
37355;SDS011;48747;50.250;18.848;2022-07-17T06:05:46;10.25;;;3.90;;
37355;SDS011;48747;50.250;18.848;2022-07-17T06:07:49;9.05;;;3.87;;
37355;SDS011;48747;50.250;18.848;2022-07-17T06:09:52;8.25;;;3.35;;
37355;SDS011;48747;50.250;18.848;2022-07-17T06:11:55;7.80;;;3.42;;
37355;SDS011;48747;50.250;18.848;2022-07-17T06:13:58;11.18;;;3.55;;
37355;SDS011;48747;50.250;18.848;2022-07-17T06:16:01;8.55;;;2.85;;
37355;SDS011;48747;50.250;18.848;2022-07-17T06:18:04;9.08;;;3.10;;
37355;SDS011;48747;50.250;18.848;2022-07-17T06:20:07;7.83;;;3.00;;
37355;SDS011;48747;50.250;18.848;2022-07-17T06:22:11;9.65;;;2.80;;
37355;SDS011;48747;50.250;18.848;2022-07-17T06:24:14;7.72;;;2.20;;
37355;SDS011;48747;50.250;18.848;2022-07-17T06:26:17;7.15;;;2.40;;
37355;SDS011;48747;50.250;18.848;2022-07-17T06:28:20;9.10;;;2.50;;
37355;SDS011;48747;50.250;18.848;2022-07-17T06:30:23;11.43;;;2.67;;
37355;SDS011;48747;50.250;18.848;2022-07-17T06:32:26;4.35;;;2.20;;
37355;SDS011;48747;50.250;18.848;2022-07-17T06:34:31;7.67;;;2.33;;
37355;SDS011;48747;50.250;18.848;2022-07-17T06:36:34;11.25;;;2.50;;
37355;SDS011;48747;50.250;18.848;2022-07-17T06:38:37;8.28;;;2.10;;
37355;SDS011;48747;50.250;18.848;2022-07-17T06:40:40;6.58;;;2.10;;
37355;SDS011;48747;50.250;18.848;2022-07-17T06:42:43;6.37;;;2.30;;
37355;SDS011;48747;50.250;18.848;2022-07-17T06:44:47;5.62;;;2.00;;
37355;SDS011;48747;50.250;18.848;2022-07-17T06:46:50;5.05;;;2.17;;
37355;SDS011;48747;50.250;18.848;2022-07-17T06:48:55;5.75;;;2.00;;
37355;SDS011;48747;50.250;18.848;2022-07-17T06:50:58;7.12;;;2.00;;
37355;SDS011;48747;50.250;18.848;2022-07-17T06:53:01;5.50;;;2.08;;
37355;SDS011;48747;50.250;18.848;2022-07-17T06:55:04;5.85;;;2.12;;
37355;SDS011;48747;50.250;18.848;2022-07-17T06:57:07;7.33;;;2.22;;
37355;SDS011;48747;50.250;18.848;2022-07-17T06:59:11;5.90;;;1.80;;
37355;SDS011;48747;50.250;18.848;2022-07-17T07:01:14;6.62;;;2.35;;
37355;SDS011;48747;50.250;18.848;2022-07-17T07:03:17;5.62;;;1.80;;
37355;SDS011;48747;50.250;18.848;2022-07-17T07:05:20;5.42;;;2.00;;
37355;SDS011;48747;50.250;18.848;2022-07-17T07:07:23;9.73;;;2.20;;
37355;SDS011;48747;50.250;18.848;2022-07-17T07:09:26;7.40;;;2.10;;
37355;SDS011;48747;50.250;18.848;2022-07-17T07:11:29;7.78;;;1.80;;
37355;SDS011;48747;50.250;18.848;2022-07-17T07:13:32;8.58;;;2.58;;
37355;SDS011;48747;50.250;18.848;2022-07-17T07:15:40;7.17;;;2.00;;
37355;SDS011;48747;50.250;18.848;2022-07-17T07:17:41;6.92;;;2.37;;
37355;SDS011;48747;50.250;18.848;2022-07-17T07:19:45;4.40;;;1.75;;
37355;SDS011;48747;50.250;18.848;2022-07-17T07:21:49;9.35;;;2.08;;
37355;SDS011;48747;50.250;18.848;2022-07-17T07:23:53;8.98;;;1.87;;
37355;SDS011;48747;50.250;18.848;2022-07-17T07:25:56;7.42;;;1.87;;
37355;SDS011;48747;50.250;18.848;2022-07-17T07:27:59;7.90;;;2.00;;
37355;SDS011;48747;50.250;18.848;2022-07-17T07:30:02;5.30;;;2.02;;
37355;SDS011;48747;50.250;18.848;2022-07-17T07:32:07;5.50;;;1.80;;
37355;SDS011;48747;50.250;18.848;2022-07-17T07:34:12;6.15;;;1.90;;
37355;SDS011;48747;50.250;18.848;2022-07-17T07:36:16;7.80;;;1.92;;
37355;SDS011;48747;50.250;18.848;2022-07-17T07:38:20;3.77;;;1.50;;
37355;SDS011;48747;50.250;18.848;2022-07-17T07:40:24;6.95;;;1.90;;
37355;SDS011;48747;50.250;18.848;2022-07-17T07:42:27;8.15;;;2.42;;
37355;SDS011;48747;50.250;18.848;2022-07-17T07:44:30;9.85;;;2.17;;
37355;SDS011;48747;50.250;18.848;2022-07-17T07:46:33;7.40;;;2.00;;
37355;SDS011;48747;50.250;18.848;2022-07-17T07:48:36;4.65;;;1.80;;
37355;SDS011;48747;50.250;18.848;2022-07-17T07:50:39;5.33;;;1.90;;
37355;SDS011;48747;50.250;18.848;2022-07-17T07:52:43;6.08;;;2.05;;
37355;SDS011;48747;50.250;18.848;2022-07-17T07:54:48;5.83;;;1.60;;
37355;SDS011;48747;50.250;18.848;2022-07-17T07:56:51;5.78;;;2.10;;
37355;SDS011;48747;50.250;18.848;2022-07-17T07:58:55;9.40;;;2.33;;
37355;SDS011;48747;50.250;18.848;2022-07-17T08:00:58;6.75;;;2.17;;
37355;SDS011;48747;50.250;18.848;2022-07-17T08:03:03;10.35;;;2.50;;
37355;SDS011;48747;50.250;18.848;2022-07-17T08:05:06;8.43;;;2.08;;
37355;SDS011;48747;50.250;18.848;2022-07-17T08:07:10;7.33;;;1.67;;
37355;SDS011;48747;50.250;18.848;2022-07-17T08:09:13;9.18;;;1.98;;
37355;SDS011;48747;50.250;18.848;2022-07-17T08:11:16;5.33;;;2.15;;
37355;SDS011;48747;50.250;18.848;2022-07-17T08:13:19;7.50;;;1.90;;
37355;SDS011;48747;50.250;18.848;2022-07-17T08:15:22;6.40;;;2.15;;
37355;SDS011;48747;50.250;18.848;2022-07-17T08:17:25;4.08;;;1.75;;
37355;SDS011;48747;50.250;18.848;2022-07-17T08:19:28;4.85;;;1.67;;
37355;SDS011;48747;50.250;18.848;2022-07-17T08:21:31;6.12;;;1.42;;
37355;SDS011;48747;50.250;18.848;2022-07-17T08:23:34;5.53;;;1.20;;
37355;SDS011;48747;50.250;18.848;2022-07-17T08:25:37;4.80;;;1.40;;
37355;SDS011;48747;50.250;18.848;2022-07-17T08:27:41;6.72;;;1.35;;
37355;SDS011;48747;50.250;18.848;2022-07-17T08:29:44;3.77;;;1.30;;
37355;SDS011;48747;50.250;18.848;2022-07-17T08:31:48;4.60;;;1.00;;
37355;SDS011;48747;50.250;18.848;2022-07-17T08:33:51;2.92;;;1.20;;
37355;SDS011;48747;50.250;18.848;2022-07-17T08:35:54;4.47;;;1.50;;
37355;SDS011;48747;50.250;18.848;2022-07-17T08:37:57;3.17;;;1.15;;
37355;SDS011;48747;50.250;18.848;2022-07-17T08:40:02;5.12;;;1.30;;
37355;SDS011;48747;50.250;18.848;2022-07-17T08:42:05;4.10;;;1.17;;
37355;SDS011;48747;50.250;18.848;2022-07-17T08:44:09;5.78;;;1.50;;
37355;SDS011;48747;50.250;18.848;2022-07-17T08:46:18;5.03;;;1.15;;
37355;SDS011;48747;50.250;18.848;2022-07-17T08:48:24;4.72;;;1.37;;
37355;SDS011;48747;50.250;18.848;2022-07-17T08:50:34;8.03;;;1.50;;
37355;SDS011;48747;50.250;18.848;2022-07-17T08:52:42;7.08;;;1.27;;
37355;SDS011;48747;50.250;18.848;2022-07-17T08:54:43;2.98;;;1.42;;
37355;SDS011;48747;50.250;18.848;2022-07-17T08:56:46;6.85;;;1.10;;
37355;SDS011;48747;50.250;18.848;2022-07-17T08:58:51;3.47;;;1.12;;
37355;SDS011;48747;50.250;18.848;2022-07-17T09:00:54;2.15;;;0.98;;
37355;SDS011;48747;50.250;18.848;2022-07-17T09:03:01;2.92;;;1.00;;
37355;SDS011;48747;50.250;18.848;2022-07-17T09:05:08;3.50;;;1.20;;
37355;SDS011;48747;50.250;18.848;2022-07-17T09:07:11;3.25;;;1.12;;
37355;SDS011;48747;50.250;18.848;2022-07-17T09:09:14;3.70;;;1.62;;
37355;SDS011;48747;50.250;18.848;2022-07-17T09:11:17;7.28;;;1.50;;
37355;SDS011;48747;50.250;18.848;2022-07-17T09:13:28;3.90;;;1.12;;
37355;SDS011;48747;50.250;18.848;2022-07-17T09:15:32;4.58;;;1.35;;
37355;SDS011;48747;50.250;18.848;2022-07-17T09:17:35;5.20;;;1.15;;
37355;SDS011;48747;50.250;18.848;2022-07-17T09:19:41;6.42;;;1.62;;
37355;SDS011;48747;50.250;18.848;2022-07-17T09:21:47;7.53;;;1.40;;
37355;SDS011;48747;50.250;18.848;2022-07-17T09:24:02;7.08;;;1.30;;
37355;SDS011;48747;50.250;18.848;2022-07-17T09:26:07;4.17;;;1.40;;
37355;SDS011;48747;50.250;18.848;2022-07-17T09:28:11;4.87;;;1.50;;
37355;SDS011;48747;50.250;18.848;2022-07-17T09:30:15;6.72;;;1.55;;
37355;SDS011;48747;50.250;18.848;2022-07-17T09:32:19;9.58;;;1.57;;
37355;SDS011;48747;50.250;18.848;2022-07-17T09:34:24;6.60;;;1.65;;
37355;SDS011;48747;50.250;18.848;2022-07-17T09:36:28;4.20;;;1.27;;
37355;SDS011;48747;50.250;18.848;2022-07-17T09:38:41;3.65;;;1.10;;
37355;SDS011;48747;50.250;18.848;2022-07-17T09:40:46;6.62;;;1.40;;
37355;SDS011;48747;50.250;18.848;2022-07-17T09:43:07;4.60;;;1.40;;
37355;SDS011;48747;50.250;18.848;2022-07-17T09:45:11;4.70;;;1.87;;
37355;SDS011;48747;50.250;18.848;2022-07-17T09:47:14;3.02;;;1.60;;
37355;SDS011;48747;50.250;18.848;2022-07-17T09:49:18;7.65;;;1.45;;
37355;SDS011;48747;50.250;18.848;2022-07-17T09:51:25;4.50;;;1.30;;
37355;SDS011;48747;50.250;18.848;2022-07-17T09:53:31;3.92;;;1.60;;
37355;SDS011;48747;50.250;18.848;2022-07-17T09:55:37;4.95;;;1.40;;
37355;SDS011;48747;50.250;18.848;2022-07-17T09:57:42;4.50;;;1.30;;
37355;SDS011;48747;50.250;18.848;2022-07-17T09:59:48;3.83;;;1.40;;
37355;SDS011;48747;50.250;18.848;2022-07-17T10:01:52;3.52;;;1.25;;
37355;SDS011;48747;50.250;18.848;2022-07-17T10:03:56;3.67;;;1.30;;
37355;SDS011;48747;50.250;18.848;2022-07-17T10:05:59;7.42;;;1.65;;
37355;SDS011;48747;50.250;18.848;2022-07-17T10:08:04;6.30;;;1.47;;
37355;SDS011;48747;50.250;18.848;2022-07-17T10:10:11;5.45;;;1.30;;
37355;SDS011;48747;50.250;18.848;2022-07-17T10:12:15;3.02;;;1.05;;
37355;SDS011;48747;50.250;18.848;2022-07-17T10:14:21;4.92;;;1.22;;
37355;SDS011;48747;50.250;18.848;2022-07-17T10:16:25;3.67;;;1.10;;
37355;SDS011;48747;50.250;18.848;2022-07-17T10:18:44;7.03;;;1.50;;
37355;SDS011;48747;50.250;18.848;2022-07-17T10:20:46;3.05;;;1.27;;
37355;SDS011;48747;50.250;18.848;2022-07-17T10:22:49;4.87;;;1.25;;
37355;SDS011;48747;50.250;18.848;2022-07-17T10:24:54;3.83;;;1.20;;
37355;SDS011;48747;50.250;18.848;2022-07-17T10:26:58;4.50;;;1.37;;
37355;SDS011;48747;50.250;18.848;2022-07-17T10:29:06;5.10;;;1.42;;
37355;SDS011;48747;50.250;18.848;2022-07-17T10:31:25;5.55;;;2.10;;
37355;SDS011;48747;50.250;18.848;2022-07-17T10:33:29;4.28;;;1.50;;
37355;SDS011;48747;50.250;18.848;2022-07-17T10:35:42;5.65;;;1.60;;
37355;SDS011;48747;50.250;18.848;2022-07-17T10:37:47;4.40;;;2.30;;
37355;SDS011;48747;50.250;18.848;2022-07-17T10:39:54;4.80;;;2.22;;
37355;SDS011;48747;50.250;18.848;2022-07-17T10:42:02;6.05;;;2.85;;
37355;SDS011;48747;50.250;18.848;2022-07-17T10:44:08;4.08;;;3.12;;
37355;SDS011;48747;50.250;18.848;2022-07-17T10:46:11;6.17;;;3.70;;
37355;SDS011;48747;50.250;18.848;2022-07-17T10:48:19;3.83;;;2.65;;
37355;SDS011;48747;50.250;18.848;2022-07-17T10:52:30;6.08;;;5.03;;
37355;SDS011;48747;50.250;18.848;2022-07-17T10:54:33;4.70;;;4.28;;
37355;SDS011;48747;50.250;18.848;2022-07-17T10:56:36;4.67;;;3.65;;
37355;SDS011;48747;50.250;18.848;2022-07-17T10:58:46;5.35;;;2.10;;
37355;SDS011;48747;50.250;18.848;2022-07-17T11:03:12;3.25;;;1.20;;
37355;SDS011;48747;50.250;18.848;2022-07-17T11:05:15;4.40;;;1.30;;
37355;SDS011;48747;50.250;18.848;2022-07-17T11:07:19;1.72;;;1.20;;
37355;SDS011;48747;50.250;18.848;2022-07-17T11:09:22;3.85;;;1.40;;
37355;SDS011;48747;50.250;18.848;2022-07-17T11:11:42;4.62;;;2.20;;
37355;SDS011;48747;50.250;18.848;2022-07-17T11:13:45;5.72;;;1.80;;
37355;SDS011;48747;50.250;18.848;2022-07-17T11:15:48;4.15;;;2.10;;
37355;SDS011;48747;50.250;18.848;2022-07-17T11:17:51;4.97;;;1.50;;
37355;SDS011;48747;50.250;18.848;2022-07-17T11:19:54;4.55;;;1.77;;
37355;SDS011;48747;50.250;18.848;2022-07-17T11:22:02;2.77;;;1.50;;
37355;SDS011;48747;50.250;18.848;2022-07-17T11:24:06;3.95;;;1.27;;
37355;SDS011;48747;50.250;18.848;2022-07-17T11:26:09;3.98;;;1.60;;
37355;SDS011;48747;50.250;18.848;2022-07-17T11:28:14;4.55;;;1.50;;
37355;SDS011;48747;50.250;18.848;2022-07-17T11:30:19;3.70;;;1.90;;
37355;SDS011;48747;50.250;18.848;2022-07-17T11:32:22;4.70;;;3.17;;
37355;SDS011;48747;50.250;18.848;2022-07-17T11:34:26;5.85;;;3.83;;
37355;SDS011;48747;50.250;18.848;2022-07-17T11:36:30;6.33;;;4.28;;
37355;SDS011;48747;50.250;18.848;2022-07-17T11:38:44;5.12;;;3.77;;
37355;SDS011;48747;50.250;18.848;2022-07-17T11:40:47;4.65;;;4.25;;
37355;SDS011;48747;50.250;18.848;2022-07-17T11:42:58;5.15;;;4.55;;
37355;SDS011;48747;50.250;18.848;2022-07-17T11:45:02;8.25;;;4.10;;
37355;SDS011;48747;50.250;18.848;2022-07-17T11:47:06;5.15;;;2.90;;
37355;SDS011;48747;50.250;18.848;2022-07-17T11:49:09;5.67;;;2.60;;
37355;SDS011;48747;50.250;18.848;2022-07-17T11:51:13;7.25;;;4.60;;
37355;SDS011;48747;50.250;18.848;2022-07-17T11:53:17;4.80;;;3.30;;
37355;SDS011;48747;50.250;18.848;2022-07-17T11:55:20;7.22;;;4.90;;
37355;SDS011;48747;50.250;18.848;2022-07-17T11:57:25;4.90;;;4.35;;
37355;SDS011;48747;50.250;18.848;2022-07-17T11:59:31;4.30;;;3.33;;
37355;SDS011;48747;50.250;18.848;2022-07-17T12:01:43;7.90;;;6.25;;
37355;SDS011;48747;50.250;18.848;2022-07-17T12:03:56;5.75;;;5.05;;
37355;SDS011;48747;50.250;18.848;2022-07-17T12:06:00;6.28;;;4.78;;
37355;SDS011;48747;50.250;18.848;2022-07-17T12:08:05;6.35;;;4.50;;
37355;SDS011;48747;50.250;18.848;2022-07-17T12:10:12;5.58;;;4.12;;
37355;SDS011;48747;50.250;18.848;2022-07-17T12:12:22;6.33;;;4.47;;
37355;SDS011;48747;50.250;18.848;2022-07-17T12:14:29;5.87;;;3.67;;
37355;SDS011;48747;50.250;18.848;2022-07-17T12:16:37;4.25;;;3.50;;
37355;SDS011;48747;50.250;18.848;2022-07-17T12:18:38;4.75;;;4.35;;
37355;SDS011;48747;50.250;18.848;2022-07-17T12:20:43;5.20;;;4.67;;